Time;durP1;ratioP1;P1;durP2;ratioP2;P2;SDS_P1;SDS_P2;PMS_P1;PMS_P2;Temp;Humidity;BMP_temperature;BMP_pressure;BME280_temperature;BME280_humidity;BME280_pressure;Samples;Min_cycle;Max_cycle;Signal;HPM_P1;HPM_P2
2023/06/03 00:02:17;;;;;;;11.45;8.60;;;460.90;2380.80;;;;;;5053016;28;20033;-85
2023/06/03 00:04:46;;;;;;;11.18;9.15;;;460.90;2380.80;;;;;;5051739;28;20095;-83
2023/06/03 00:07:12;;;;;;;11.02;8.90;;;460.90;2380.80;;;;;;5051720;28;20461;-87
2023/06/03 00:09:38;;;;;;;11.27;9.15;;;460.90;2380.80;;;;;;5048469;28;20083;-84
2023/06/03 00:12:04;;;;;;;11.90;9.23;;;460.90;2380.80;;;;;;5051519;28;20032;-83
2023/06/03 00:14:30;;;;;;;15.25;9.35;;;460.90;2380.80;;;;;;5051306;28;20017;-86
2023/06/03 00:16:56;;;;;;;12.77;8.23;;;460.90;2380.80;;;;;;5051330;28;20538;-82
2023/06/03 00:19:22;;;;;;;14.23;9.65;;;460.80;2380.80;;;;;;5053554;28;20033;-83
2023/06/03 00:21:51;;;;;;;13.45;8.95;;;460.90;2380.80;;;;;;5052270;28;20036;-82
2023/06/03 00:24:20;;;;;;;12.10;9.90;;;460.90;2380.80;;;;;;5069010;28;20495;-84
2023/06/03 00:26:46;;;;;;;17.88;10.90;;;460.90;2380.80;;;;;;5052474;28;20029;-81
2023/06/03 00:29:12;;;;;;;14.27;11.00;;;460.90;2380.80;;;;;;5052975;28;20028;-85
2023/06/03 00:31:37;;;;;;;12.80;9.48;;;460.90;2380.80;;;;;;5052499;28;20057;-84
2023/06/03 00:34:03;;;;;;;11.30;9.23;;;460.90;2380.80;;;;;;5052496;28;20028;-84
2023/06/03 00:36:29;;;;;;;13.70;8.75;;;460.90;2380.80;;;;;;5051978;28;20032;-83
2023/06/03 00:38:55;;;;;;;14.88;10.57;;;460.90;2380.80;;;;;;5053718;28;20031;-85
2023/06/03 00:41:20;;;;;;;12.05;9.00;;;460.90;2380.80;;;;;;5052732;28;20033;-84
2023/06/03 00:43:46;;;;;;;12.65;10.15;;;460.90;2380.80;;;;;;5052546;28;20025;-86
2023/06/03 00:46:13;;;;;;;12.82;9.50;;;460.90;2380.80;;;;;;5053216;28;20465;-85
2023/06/03 00:48:39;;;;;;;12.25;9.18;;;460.90;2380.80;;;;;;5052512;28;20021;-83
2023/06/03 00:51:06;;;;;;;14.70;10.20;;;460.90;2380.80;;;;;;5051626;28;20049;-84
2023/06/03 00:53:32;;;;;;;13.93;10.25;;;460.90;2380.80;;;;;;5051726;28;20060;-84
2023/06/03 00:55:59;;;;;;;13.07;9.00;;;461.00;2380.80;;;;;;5053701;28;20028;-84
2023/06/03 00:58:25;;;;;;;12.55;8.38;;;461.00;2380.80;;;;;;5055680;28;20052;-82
2023/06/03 01:00:51;;;;;;;10.52;8.35;;;461.00;2380.80;;;;;;5055829;28;20056;-83
2023/06/03 01:03:19;;;;;;;10.73;7.75;;;461.00;2380.80;;;;;;5055901;28;20048;-83
2023/06/03 01:06:01;;;;;;;11.27;6.93;;;461.00;2380.80;;;;;;5055496;28;20485;-82
2023/06/03 01:09:19;;;;;;;9.97;8.00;;;461.00;2380.80;;;;;;5055648;28;20056;-83
2023/06/03 01:11:48;;;;;;;13.20;9.38;;;460.90;2380.80;;;;;;5054573;28;20325;-83
2023/06/03 01:14:46;;;;;;;12.23;8.65;;;461.00;2380.80;;;;;;5055115;28;20087;-84
2023/06/03 01:17:16;;;;;;;12.57;8.27;;;461.10;2380.80;;;;;;5037391;28;20037;-84
2023/06/03 01:19:48;;;;;;;10.35;8.93;;;461.00;2380.80;;;;;;5037704;28;20029;-83
2023/06/03 01:22:20;;;;;;;11.10;8.30;;;461.10;2380.80;;;;;;5038190;28;20047;-83
2023/06/03 01:24:50;;;;;;;11.43;9.48;;;460.90;2380.80;;;;;;5038000;28;20473;-84
2023/06/03 01:27:20;;;;;;;16.48;9.38;;;460.90;2380.80;;;;;;5037648;28;20060;-82
2023/06/03 01:29:47;;;;;;;17.13;10.77;;;460.80;2380.80;;;;;;5037567;28;20075;-83
2023/06/03 01:32:15;;;;;;;15.45;9.82;;;460.90;2380.80;;;;;;5053904;28;20033;-83
2023/06/03 01:34:42;;;;;;;17.25;10.50;;;436.10;2355.20;;;;;;5037722;28;20039;-82
2023/06/03 01:37:09;;;;;;;12.30;8.65;;;436.10;2355.20;;;;;;5037429;28;20067;-82
2023/06/03 01:39:40;;;;;;;11.38;8.23;;;460.80;2380.80;;;;;;5037248;28;20057;-83
2023/06/03 01:42:10;;;;;;;14.20;9.75;;;460.90;2380.80;;;;;;5037563;28;20547;-84
2023/06/03 01:44:36;;;;;;;14.20;9.15;;;460.80;2380.80;;;;;;5037390;28;20029;-83
2023/06/03 01:47:03;;;;;;;10.68;8.07;;;460.90;2380.80;;;;;;5038478;28;20041;-84
2023/06/03 01:49:31;;;;;;;12.32;9.82;;;460.80;2380.80;;;;;;5055163;28;20036;-83
2023/06/03 01:52:01;;;;;;;11.13;8.98;;;436.10;2355.20;;;;;;5045281;28;20481;-83
2023/06/03 01:54:28;;;;;;;14.07;8.88;;;436.10;2355.20;;;;;;5034825;28;20040;-84
2023/06/03 01:56:55;;;;;;;14.68;9.95;;;435.80;2355.20;;;;;;5036595;28;20119;-85
2023/06/03 01:59:25;;;;;;;12.73;9.77;;;435.70;1996.80;;;;;;5035863;28;20029;-83
2023/06/03 02:01:58;;;;;;;13.15;9.07;;;435.80;2355.20;;;;;;5035606;28;20029;-83
2023/06/03 02:04:26;;;;;;;11.82;8.95;;;435.60;2022.40;;;;;;5034851;28;20026;-84
2023/06/03 02:06:59;;;;;;;16.02;8.82;;;435.80;2355.20;;;;;;5033427;28;20036;-84
2023/06/03 02:09:27;;;;;;;14.43;8.73;;;435.80;2355.20;;;;;;5035972;28;20466;-84
2023/06/03 02:11:56;;;;;;;15.15;8.90;;;435.90;2355.20;;;;;;5035480;28;20037;-83
2023/06/03 02:14:26;;;;;;;11.18;8.57;;;435.90;2355.20;;;;;;5034480;28;20030;-83
2023/06/03 02:16:53;;;;;;;10.40;8.55;;;436.10;2355.20;;;;;;5034450;28;20029;-83
2023/06/03 02:19:26;;;;;;;15.48;8.23;;;436.00;2355.20;;;;;;5034624;28;20036;-83
2023/06/03 02:21:53;;;;;;;16.25;7.88;;;436.00;2355.20;;;;;;5035830;28;20412;-83
2023/06/03 02:24:19;;;;;;;10.20;7.18;;;436.00;2355.20;;;;;;5034607;28;20421;-82
2023/06/03 02:26:54;;;;;;;11.27;7.45;;;436.00;2355.20;;;;;;5034412;28;20120;-82
2023/06/03 02:29:22;;;;;;;9.52;7.75;;;436.00;2355.20;;;;;;5034293;28;20473;-81
2023/06/03 02:31:51;;;;;;;12.43;7.75;;;435.90;2355.20;;;;;;5035545;28;20461;-83
2023/06/03 02:34:17;;;;;;;14.18;9.25;;;435.90;2355.20;;;;;;5035805;28;20128;-82
2023/06/03 02:36:45;;;;;;;13.00;8.25;;;435.80;2355.20;;;;;;5033729;28;20028;-84
2023/06/03 02:39:11;;;;;;;14.57;7.95;;;435.80;2355.20;;;;;;5044416;28;20118;-83
2023/06/03 02:41:41;;;;;;;14.25;8.48;;;435.90;2355.20;;;;;;5070776;28;20033;-83
2023/06/03 02:44:07;;;;;;;11.63;7.55;;;435.80;2355.20;;;;;;5055073;28;20096;-83
2023/06/03 02:46:34;;;;;;;11.70;8.07;;;435.90;2355.20;;;;;;5053881;28;20108;-82
2023/06/03 02:49:04;;;;;;;13.45;7.47;;;435.90;2355.20;;;;;;5046994;28;20026;-83
2023/06/03 02:51:30;;;;;;;11.05;7.82;;;435.90;2355.20;;;;;;5033408;28;20045;-83
2023/06/03 02:53:56;;;;;;;14.45;8.10;;;435.90;2355.20;;;;;;5033780;28;20504;-83
2023/06/03 02:56:22;;;;;;;10.57;7.53;;;436.00;2355.20;;;;;;5033798;28;20030;-83
2023/06/03 02:58:48;;;;;;;7.70;6.72;;;435.90;2355.20;;;;;;5035135;28;20113;-82
2023/06/03 03:01:15;;;;;;;10.40;7.60;;;435.90;2355.20;;;;;;5035150;28;20377;-83
2023/06/03 03:03:41;;;;;;;9.18;6.82;;;436.00;2355.20;;;;;;5035091;28;20021;-83
2023/06/03 03:06:11;;;;;;;10.30;6.88;;;436.00;2355.20;;;;;;5033362;28;20046;-82
2023/06/03 03:08:37;;;;;;;9.55;8.00;;;436.00;2355.20;;;;;;5033659;28;20021;-82
2023/06/03 03:11:05;;;;;;;11.50;8.40;;;436.00;2355.20;;;;;;5033476;28;20099;-83
2023/06/03 03:13:31;;;;;;;12.13;7.38;;;436.00;2355.20;;;;;;5036783;28;20116;-82
2023/06/03 03:15:58;;;;;;;10.35;7.53;;;436.00;2355.20;;;;;;5034784;28;20077;-84
2023/06/03 03:18:24;;;;;;;9.90;7.75;;;436.10;2355.20;;;;;;5032480;28;20059;-83
2023/06/03 03:20:50;;;;;;;11.95;6.78;;;436.10;2355.20;;;;;;5034440;28;20033;-82
2023/06/03 03:23:16;;;;;;;10.95;7.05;;;436.00;2355.20;;;;;;5036384;28;20040;-82
2023/06/03 03:25:42;;;;;;;12.80;6.80;;;436.10;2355.20;;;;;;5053308;28;20538;-82
2023/06/03 03:28:07;;;;;;;10.05;6.72;;;436.10;2355.20;;;;;;5053030;28;20021;-83
2023/06/03 03:30:37;;;;;;;12.35;7.90;;;436.10;2355.20;;;;;;5052941;28;20029;-83
2023/06/03 03:33:04;;;;;;;10.20;7.53;;;435.90;2355.20;;;;;;5054174;28;20572;-83
2023/06/03 03:35:30;;;;;;;14.60;9.30;;;435.80;2355.20;;;;;;5054274;28;20020;-81
2023/06/03 03:38:04;;;;;;;12.63;9.52;;;435.80;2355.20;;;;;;5052820;28;20102;-82
2023/06/03 03:40:36;;;;;;;18.40;10.77;;;435.90;2355.20;;;;;;5052916;28;20025;-82
2023/06/03 03:43:02;;;;;;;15.05;9.63;;;435.70;2355.20;;;;;;5052916;28;20044;-82
2023/06/03 03:45:36;;;;;;;20.30;11.00;;;435.70;2355.20;;;;;;5052658;28;20090;-83
2023/06/03 03:48:04;;;;;;;15.45;9.23;;;435.60;2355.20;;;;;;5054077;28;20031;-83
2023/06/03 03:50:48;;;;;;;15.48;9.52;;;435.50;2201.60;;;;;;5052921;28;20408;-83
2023/06/03 03:53:23;;;;;;;16.42;10.20;;;435.40;2355.20;;;;;;5052499;28;20060;-81
2023/06/03 03:55:51;;;;;;;13.68;10.10;;;435.50;2355.20;;;;;;5052862;28;20033;-80
2023/06/03 03:58:49;;;;;;;14.90;9.18;;;435.50;2355.20;;;;;;5052832;28;20047;-81
2023/06/03 04:01:18;;;;;;;15.77;9.18;;;435.60;2355.20;;;;;;5012159;28;20105;-82
2023/06/03 04:03:49;;;;;;;14.48;9.32;;;435.60;2355.20;;;;;;5012015;28;20037;-82
2023/06/03 04:06:27;;;;;;;11.77;9.02;;;435.60;2355.20;;;;;;5011547;28;20057;-83
2023/06/03 04:08:54;;;;;;;11.80;8.40;;;435.60;2355.20;;;;;;4995619;28;20042;-84
2023/06/03 04:11:23;;;;;;;12.60;8.15;;;435.40;2355.20;;;;;;5011755;28;20117;-83
2023/06/03 04:13:50;;;;;;;12.27;7.70;;;435.40;2355.20;;;;;;5011554;28;20157;-82
2023/06/03 04:16:34;;;;;;;14.45;7.32;;;435.60;2355.20;;;;;;4995287;28;20045;-83
2023/06/03 04:19:06;;;;;;;13.68;7.22;;;461.00;2380.80;;;;;;4995530;28;20089;-83
2023/06/03 04:21:37;;;;;;;9.85;6.18;;;435.80;2355.20;;;;;;4995100;28;20385;-83
2023/06/03 04:24:05;;;;;;;11.45;7.60;;;435.80;2355.20;;;;;;4995464;28;20030;-82
2023/06/03 04:26:30;;;;;;;10.73;6.78;;;435.80;2355.20;;;;;;4995248;28;20072;-82
2023/06/03 04:28:56;;;;;;;13.32;7.55;;;435.90;2355.20;;;;;;4994999;28;20061;-82
2023/06/03 04:31:22;;;;;;;13.40;7.55;;;435.90;2355.20;;;;;;4999074;28;20038;-82
2023/06/03 04:33:49;;;;;;;11.65;7.53;;;436.00;2355.20;;;;;;4998900;28;20040;-83
2023/06/03 04:36:14;;;;;;;13.40;8.10;;;436.10;2355.20;;;;;;5026994;28;20036;-83
2023/06/03 04:38:41;;;;;;;12.43;8.00;;;436.10;2355.20;;;;;;5056138;28;20089;-82
2023/06/03 04:41:10;;;;;;;12.55;7.68;;;436.10;2355.20;;;;;;5056051;28;20033;-82
2023/06/03 04:43:38;;;;;;;14.50;8.02;;;460.80;2380.80;;;;;;5056164;28;20469;-82
2023/06/03 04:46:06;;;;;;;13.15;10.15;;;460.80;2380.80;;;;;;5056015;28;20025;-82
2023/06/03 04:48:33;;;;;;;18.77;11.23;;;460.90;2380.80;;;;;;5055838;28;20056;-82
2023/06/03 04:51:01;;;;;;;14.65;10.70;;;461.20;2380.80;;;;;;5056061;28;20186;-83
2023/06/03 04:53:28;;;;;;;17.75;10.15;;;436.00;2355.20;;;;;;5056213;28;20162;-84
2023/06/03 04:55:54;;;;;;;12.80;9.85;;;436.00;2355.20;;;;;;5056187;28;20025;-83
2023/06/03 04:58:20;;;;;;;18.20;11.32;;;435.90;2227.20;;;;;;5056198;28;20063;-85
2023/06/03 05:00:48;;;;;;;18.65;10.27;;;436.00;2176.00;;;;;;5056566;28;20103;-85
2023/06/03 05:03:16;;;;;;;13.75;9.93;;;436.00;2355.20;;;;;;5057668;28;20021;-86
2023/06/03 05:05:43;;;;;;;22.98;10.77;;;436.10;2355.20;;;;;;5056001;28;20053;-86
2023/06/03 05:08:12;;;;;;;16.65;10.45;;;436.10;2355.20;;;;;;5056742;28;20124;-85
2023/06/03 05:10:38;;;;;;;13.95;10.48;;;436.00;2048.00;;;;;;5056294;28;20069;-85
2023/06/03 05:13:08;;;;;;;18.90;11.52;;;435.90;2355.20;;;;;;5056152;28;20029;-85
2023/06/03 05:15:35;;;;;;;15.30;10.75;;;436.00;2355.20;;;;;;5056046;28;20028;-85
2023/06/03 05:18:01;;;;;;;14.43;11.43;;;436.00;2355.20;;;;;;5056096;28;20031;-85
2023/06/03 05:20:28;;;;;;;15.27;10.77;;;436.00;2355.20;;;;;;5056047;28;20055;-85
2023/06/03 05:22:54;;;;;;;16.77;11.45;;;436.10;2355.20;;;;;;5057159;28;20021;-85
2023/06/03 05:25:20;;;;;;;15.68;11.10;;;436.10;2355.20;;;;;;5056006;28;20031;-85
2023/06/03 05:27:46;;;;;;;13.77;9.93;;;460.80;2278.40;;;;;;5055918;28;20021;-84
2023/06/03 05:30:12;;;;;;;17.02;10.80;;;460.90;2380.80;;;;;;5054893;28;20029;-84
2023/06/03 05:32:39;;;;;;;15.45;10.75;;;461.00;2380.80;;;;;;5055418;28;20127;-85
2023/06/03 05:35:06;;;;;;;19.30;10.48;;;460.90;2380.80;;;;;;5055718;28;20033;-84
2023/06/03 05:37:31;;;;;;;14.60;12.10;;;461.10;2380.80;;;;;;5055874;28;20029;-85
2023/06/03 05:39:57;;;;;;;17.35;12.05;;;461.10;2380.80;;;;;;5055795;28;20021;-85
2023/06/03 05:42:23;;;;;;;20.00;11.95;;;461.10;2380.80;;;;;;5054920;28;20032;-85
2023/06/03 05:44:49;;;;;;;17.42;12.73;;;461.10;2304.00;;;;;;5056745;28;20036;-86
2023/06/03 05:47:14;;;;;;;16.42;12.65;;;461.10;2380.80;;;;;;5055623;28;20488;-85
2023/06/03 05:49:40;;;;;;;20.10;12.63;;;461.20;2380.80;;;;;;5055780;28;20021;-85
2023/06/03 05:52:06;;;;;;;16.88;11.20;;;461.20;2380.80;;;;;;5055666;28;20066;-86
2023/06/03 05:54:32;;;;;;;17.17;10.88;;;461.20;2380.80;;;;;;5055689;28;20029;-85
2023/06/03 05:56:58;;;;;;;13.35;10.07;;;461.30;2380.80;;;;;;5056887;28;20025;-85
2023/06/03 05:59:24;;;;;;;18.42;10.90;;;461.30;2380.80;;;;;;5056914;28;20060;-85
2023/06/03 06:01:50;;;;;;;12.80;10.10;;;461.30;2380.80;;;;;;5055612;28;20128;-85
2023/06/03 06:04:16;;;;;;;13.75;10.90;;;461.40;2380.80;;;;;;5055306;28;20052;-83
2023/06/03 06:06:42;;;;;;;15.57;11.93;;;461.40;2380.80;;;;;;5055059;28;20076;-84
2023/06/03 06:09:08;;;;;;;17.23;12.60;;;461.40;2380.80;;;;;;5055219;28;20029;-87
2023/06/03 06:11:34;;;;;;;16.70;13.38;;;461.40;2380.80;;;;;;5055345;28;20388;-85
2023/06/03 06:13:59;;;;;;;18.90;13.63;;;461.50;2380.80;;;;;;5055109;28;20064;-86
2023/06/03 06:16:25;;;;;;;14.80;13.25;;;461.50;2380.80;;;;;;5056563;28;20025;-85
2023/06/03 06:18:51;;;;;;;15.60;13.30;;;461.60;2380.80;;;;;;5054954;28;20048;-87
2023/06/03 06:21:17;;;;;;;12.98;11.45;;;461.60;2380.80;;;;;;5054897;28;20119;-85
2023/06/03 06:23:43;;;;;;;16.60;12.25;;;461.60;2380.80;;;;;;5054950;28;20028;-83
2023/06/03 06:26:13;;;;;;;16.92;12.45;;;461.70;2380.80;;;;;;5054095;28;20032;-82
2023/06/03 06:28:39;;;;;;;17.55;12.75;;;461.60;2380.80;;;;;;5055775;28;20025;-83
2023/06/03 06:31:05;;;;;;;14.15;12.13;;;461.70;2380.80;;;;;;5054155;28;20029;-82
2023/06/03 06:33:34;;;;;;;16.23;11.82;;;486.40;2380.80;;;;;;5053888;28;20110;-81
2023/06/03 06:36:32;;;;;;;14.25;10.52;;;486.50;2380.80;;;;;;5054228;28;20120;-82
2023/06/03 06:38:58;;;;;;;12.68;10.98;;;486.50;2380.80;;;;;;5053071;28;20021;-81
2023/06/03 06:41:28;;;;;;;14.88;11.95;;;486.50;2380.80;;;;;;5053354;28;20025;-82
2023/06/03 06:43:54;;;;;;;15.07;11.70;;;486.60;2380.80;;;;;;5054048;28;20075;-83
2023/06/03 06:46:24;;;;;;;14.98;11.35;;;486.70;2380.80;;;;;;5055362;28;20385;-83
2023/06/03 06:48:50;;;;;;;14.40;11.85;;;486.50;2380.80;;;;;;5055082;28;20076;-82
2023/06/03 06:51:19;;;;;;;16.90;11.68;;;486.60;2380.80;;;;;;5053853;28;20127;-83
2023/06/03 06:53:51;;;;;;;15.52;12.57;;;486.50;2380.80;;;;;;5053640;28;20029;-82
2023/06/03 06:56:18;;;;;;;21.00;12.13;;;486.40;2380.80;;;;;;5053862;28;20353;-82
2023/06/03 06:58:45;;;;;;;17.42;12.80;;;461.70;2380.80;;;;;;5053786;28;20025;-82
2023/06/03 07:01:11;;;;;;;17.33;13.07;;;461.70;2380.80;;;;;;5053722;28;20697;-82
2023/06/03 07:03:37;;;;;;;14.65;12.68;;;486.40;2380.80;;;;;;5053864;28;20036;-82
2023/06/03 07:06:03;;;;;;;15.40;12.13;;;486.60;2380.80;;;;;;5060597;28;20385;-80
2023/06/03 07:08:29;;;;;;;14.25;11.45;;;486.80;2380.80;;;;;;5069482;28;20040;-83
2023/06/03 07:11:01;;;;;;;16.23;11.18;;;486.80;2380.80;;;;;;5053521;28;20029;-82
2023/06/03 07:13:26;;;;;;;15.05;10.93;;;486.90;2380.80;;;;;;5053463;28;20032;-83
2023/06/03 07:15:52;;;;;;;15.80;12.05;;;487.00;2380.80;;;;;;5053328;28;20120;-81
2023/06/03 07:18:19;;;;;;;18.38;12.38;;;486.90;2380.80;;;;;;5053220;28;20021;-81
2023/06/03 07:20:47;;;;;;;18.75;12.10;;;487.00;2380.80;;;;;;5053337;28;20465;-81
2023/06/03 07:23:19;;;;;;;15.70;11.95;;;486.80;2380.80;;;;;;5052817;28;20029;-81
2023/06/03 07:25:49;;;;;;;;;;;486.90;2380.80;;;;;;5053790;28;20122;-82
2023/06/03 07:28:17;;;;;;;24.98;13.70;;;487.00;2380.80;;;;;;5054003;28;19952;-81
2023/06/03 07:30:44;;;;;;;13.15;10.00;;;487.20;2380.80;;;;;;5052823;28;20032;-80
2023/06/03 07:33:23;;;;;;;16.13;10.13;;;487.20;2380.80;;;;;;5053044;28;20423;-81
2023/06/03 07:36:01;;;;;;;13.80;10.48;;;487.20;2380.80;;;;;;5052760;28;20025;-81
2023/06/03 07:38:45;;;;;;;15.23;11.00;;;487.20;2380.80;;;;;;5051879;28;20024;-82
2023/06/03 07:41:11;;;;;;;16.85;10.82;;;487.30;2380.80;;;;;;5052330;28;20075;-81
2023/06/03 07:43:40;;;;;;;18.00;10.75;;;512.00;2380.80;;;;;;5052471;28;20420;-82
2023/06/03 07:46:07;;;;;;;15.02;10.27;;;512.00;2380.80;;;;;;5052057;28;20032;-80
2023/06/03 07:48:36;;;;;;;15.85;10.55;;;512.10;2380.80;;;;;;5052973;28;20017;-80
2023/06/03 07:51:03;;;;;;;17.70;11.45;;;512.20;2380.80;;;;;;5052384;28;20051;-80
2023/06/03 07:53:30;;;;;;;16.42;11.27;;;512.40;2380.80;;;;;;5052812;28;20083;-82
2023/06/03 07:55:58;;;;;;;11.20;8.50;;;512.40;2380.80;;;;;;5053954;28;20029;-80
2023/06/03 07:58:25;;;;;;;10.38;9.30;;;512.30;2380.80;;;;;;5053419;28;20048;-80
2023/06/03 08:00:54;;;;;;;12.63;8.77;;;512.40;2380.80;;;;;;5052503;28;20025;-81
2023/06/03 08:03:25;;;;;;;11.13;8.88;;;512.40;2380.80;;;;;;5054011;28;20021;-81
2023/06/03 08:05:51;;;;;;;12.00;8.02;;;512.50;2380.80;;;;;;5051734;28;20040;-80
2023/06/03 08:08:23;;;;;;;9.25;8.10;;;512.60;2380.80;;;;;;5052440;28;20488;-79
2023/06/03 08:10:49;;;;;;;9.38;8.48;;;512.30;2380.80;;;;;;5052263;28;20025;-81
2023/06/03 08:13:17;;;;;;;9.13;7.53;;;512.80;2380.80;;;;;;5052061;28;20086;-82
2023/06/03 08:15:43;;;;;;;7.80;6.85;;;537.60;2406.40;;;;;;5054020;28;20024;-81
2023/06/03 08:18:09;;;;;;;8.38;7.25;;;537.60;2406.40;;;;;;5052324;28;20052;-83
2023/06/03 08:20:37;;;;;;;7.43;6.63;;;537.60;2406.40;;;;;;5052314;28;20037;-80
2023/06/03 08:23:04;;;;;;;9.13;7.22;;;537.60;2406.40;;;;;;5052967;28;20487;-81
2023/06/03 08:25:31;;;;;;;7.65;6.82;;;537.60;2406.40;;;;;;5053200;28;20037;-81
2023/06/03 08:27:57;;;;;;;9.82;8.40;;;537.60;2406.40;;;;;;5054003;28;20048;-83
2023/06/03 08:30:23;;;;;;;10.40;6.72;;;537.60;2406.40;;;;;;5052519;28;20453;-81
2023/06/03 08:32:50;;;;;;;8.32;6.68;;;512.90;2380.80;;;;;;5052431;28;20025;-81
2023/06/03 08:35:21;;;;;;;7.78;6.93;;;537.60;2406.40;;;;;;5052571;28;20109;-79
2023/06/03 08:37:47;;;;;;;10.02;6.70;;;537.70;2406.40;;;;;;5054019;28;20033;-77
2023/06/03 08:40:15;;;;;;;9.55;7.60;;;537.80;2406.40;;;;;;5055768;28;20017;-79
2023/06/03 08:42:45;;;;;;;8.70;6.53;;;537.80;2406.40;;;;;;5055057;28;20036;-79
2023/06/03 08:45:16;;;;;;;8.02;6.78;;;537.80;2406.40;;;;;;5055025;28;20485;-78
2023/06/03 08:48:10;;;;;;;8.52;6.68;;;537.80;2406.40;;;;;;5052796;28;20048;-79
2023/06/03 08:50:36;;;;;;;12.07;6.57;;;537.80;2406.40;;;;;;5073583;28;20025;-77
2023/06/03 08:53:09;;;;;;;8.68;6.78;;;537.90;2406.40;;;;;;5057205;28;20047;-76
2023/06/03 08:55:36;;;;;;;;;;;537.90;2406.40;;;;;;5056043;28;20025;-80
2023/06/03 08:58:25;;;;;;;8.50;6.78;;;538.00;2406.40;;;;;;5052390;28;20317;-80
2023/06/03 09:01:01;;;;;;;8.30;7.03;;;538.00;2406.40;;;;;;5069931;28;20071;-81
2023/06/03 09:03:27;;;;;;;11.98;7.30;;;538.10;2406.40;;;;;;5069512;28;20029;-80
2023/06/03 09:05:53;;;;;;;8.27;6.57;;;538.20;2406.40;;;;;;5068897;28;20071;-81
2023/06/03 09:08:20;;;;;;;8.65;7.10;;;538.30;2406.40;;;;;;5068580;28;20268;-80
2023/06/03 09:10:47;;;;;;;8.07;7.05;;;538.50;2406.40;;;;;;5070012;28;20063;-81
2023/06/03 09:13:16;;;;;;;9.57;7.40;;;538.50;2406.40;;;;;;5069055;28;20033;-80
2023/06/03 09:15:43;;;;;;;11.27;7.28;;;538.40;2406.40;;;;;;5066811;28;20041;-78
2023/06/03 09:18:09;;;;;;;9.18;7.05;;;538.50;2406.40;;;;;;5072036;28;20033;-82
2023/06/03 09:20:36;;;;;;;10.93;7.20;;;538.50;2406.40;;;;;;5072101;28;20119;-81
2023/06/03 09:23:03;;;;;;;8.13;7.28;;;538.50;2406.40;;;;;;5071134;28;20040;-81
2023/06/03 09:25:28;;;;;;;10.00;8.00;;;538.50;2406.40;;;;;;5056662;28;20032;-83
2023/06/03 09:27:54;;;;;;;11.02;8.45;;;563.30;2432.00;;;;;;5071276;28;20453;-82
2023/06/03 09:30:21;;;;;;;8.45;7.55;;;563.50;2432.00;;;;;;5072581;28;20119;-81
2023/06/03 09:32:47;;;;;;;8.75;7.47;;;563.90;2432.00;;;;;;5070472;28;20037;-79
2023/06/03 09:35:13;;;;;;;9.18;7.60;;;563.60;2432.00;;;;;;5055046;28;20029;-80
2023/06/03 09:37:56;;;;;;;10.15;7.70;;;563.60;2432.00;;;;;;5055283;28;20029;-80
2023/06/03 09:40:28;;;;;;;9.85;8.85;;;563.70;2432.00;;;;;;5056924;28;20074;-80
2023/06/03 09:42:54;;;;;;;9.88;7.57;;;563.80;2432.00;;;;;;5054681;28;20397;-80
2023/06/03 09:45:33;;;;;;;9.35;7.32;;;563.80;2432.00;;;;;;5055262;28;20029;-80
2023/06/03 09:48:00;;;;;;;9.23;7.65;;;563.80;2432.00;;;;;;5055211;28;20025;-80
2023/06/03 09:50:28;;;;;;;9.77;7.47;;;563.80;2432.00;;;;;;5054880;28;20435;-81
2023/06/03 09:52:54;;;;;;;8.40;7.50;;;563.80;2432.00;;;;;;5054878;28;20029;-81
2023/06/03 09:55:23;;;;;;;10.07;8.23;;;563.80;2432.00;;;;;;5055440;28;20086;-80
2023/06/03 09:58:05;;;;;;;8.88;7.93;;;563.80;2432.00;;;;;;5054970;28;20025;-82
2023/06/03 10:00:48;;;;;;;9.38;7.93;;;563.80;2432.00;;;;;;5055446;28;20029;-80
2023/06/03 10:03:14;;;;;;;8.90;7.47;;;563.90;2432.00;;;;;;5055070;28;20085;-82
2023/06/03 10:05:41;;;;;;;8.80;7.90;;;563.90;2432.00;;;;;;5055575;28;20435;-82
2023/06/03 10:08:07;;;;;;;12.48;9.15;;;563.90;2432.00;;;;;;5057505;28;20477;-80
2023/06/03 10:10:33;;;;;;;12.02;9.05;;;563.90;2432.00;;;;;;5055400;28;20370;-83
2023/06/03 10:13:18;;;;;;;11.13;8.60;;;563.90;2432.00;;;;;;5054940;28;20029;-81
2023/06/03 10:15:44;;;;;;;12.05;8.02;;;563.90;2432.00;;;;;;5054953;28;20029;-82
2023/06/03 10:18:10;;;;;;;9.80;8.48;;;564.00;2432.00;;;;;;5055633;28;20025;-81
2023/06/03 10:20:37;;;;;;;9.98;8.13;;;564.00;2432.00;;;;;;5056563;28;20029;-82
2023/06/03 10:23:05;;;;;;;9.57;8.30;;;564.00;2432.00;;;;;;5056047;28;20036;-82
2023/06/03 10:25:42;;;;;;;9.00;8.05;;;564.00;2432.00;;;;;;5056251;28;20037;-81
2023/06/03 10:28:09;;;;;;;12.27;7.75;;;589.10;2432.00;;;;;;5055191;28;20025;-82
2023/06/03 10:30:35;;;;;;;11.30;9.07;;;589.20;2432.00;;;;;;5054801;28;20029;-84
2023/06/03 10:33:06;;;;;;;12.23;8.75;;;589.40;2432.00;;;;;;5054437;28;20035;-82
2023/06/03 10:35:34;;;;;;;9.70;7.13;;;614.40;2432.00;;;;;;5055036;28;20056;-84
2023/06/03 10:38:03;;;;;;;9.82;7.85;;;589.70;2432.00;;;;;;5056570;28;20032;-84
2023/06/03 10:40:29;;;;;;;10.13;8.70;;;589.60;2432.00;;;;;;5054481;28;20052;-84
2023/06/03 10:42:56;;;;;;;11.45;8.55;;;589.50;2432.00;;;;;;5054743;28;20029;-83
2023/06/03 10:45:26;;;;;;;10.65;9.10;;;589.40;2432.00;;;;;;5055457;28;20429;-82
2023/06/03 10:48:02;;;;;;;12.82;9.15;;;589.20;2432.00;;;;;;5054538;28;20021;-81
2023/06/03 10:50:37;;;;;;;11.70;10.50;;;589.10;2432.00;;;;;;5054546;28;20032;-83
2023/06/03 10:53:17;;;;;;;14.90;9.98;;;588.90;2432.00;;;;;;5054070;28;20029;-82
2023/06/03 10:56:01;;;;;;;10.70;9.50;;;588.80;2432.00;;;;;;5055640;28;20029;-80
2023/06/03 10:58:28;;;;;;;12.15;8.90;;;588.80;2432.00;;;;;;5054510;28;20414;-81
2023/06/03 11:00:58;;;;;;;12.38;9.60;;;564.10;2432.00;;;;;;5077295;28;20041;-82
2023/06/03 11:03:29;;;;;;;10.95;9.05;;;564.00;2432.00;;;;;;5067773;28;20029;-82
2023/06/03 11:06:21;;;;;;;10.90;8.57;;;564.00;2432.00;;;;;;5054351;28;20045;-80
2023/06/03 11:09:02;;;;;;;11.90;8.80;;;564.10;2432.00;;;;;;5031155;28;20034;-82
2023/06/03 11:11:55;;;;;;;13.00;9.00;;;564.00;2432.00;;;;;;5050828;28;20132;-82
2023/06/03 11:14:27;;;;;;;;;;;564.00;2432.00;;;;;;5050155;28;20026;-82
2023/06/03 11:16:59;;;;;;;9.98;8.10;;;564.00;2432.00;;;;;;5034871;28;20256;-82
2023/06/03 11:19:46;;;;;;;11.35;10.15;;;564.10;2432.00;;;;;;5053365;28;20464;-82
2023/06/03 11:22:27;;;;;;;12.55;8.93;;;564.10;2432.00;;;;;;5050892;28;20138;-82
2023/06/03 11:25:00;;;;;;;10.95;8.35;;;564.10;2432.00;;;;;;5054185;28;20089;-82
2023/06/03 11:27:27;;;;;;;11.35;9.95;;;564.10;2432.00;;;;;;5048438;28;20039;-81
2023/06/03 11:30:01;;;;;;;9.85;7.95;;;564.10;2432.00;;;;;;5052806;28;20032;-80
2023/06/03 11:32:29;;;;;;;11.38;9.27;;;588.90;2432.00;;;;;;5054299;28;20036;-83
2023/06/03 11:35:04;;;;;;;10.43;8.65;;;588.80;2432.00;;;;;;5052753;28;20102;-82
2023/06/03 11:37:36;;;;;;;10.02;9.02;;;588.80;2432.00;;;;;;5052943;28;20025;-82
2023/06/03 11:40:07;;;;;;;11.43;10.23;;;588.80;2432.00;;;;;;5052675;28;20488;-83
2023/06/03 11:42:56;;;;;;;11.65;9.13;;;588.90;2432.00;;;;;;5054428;28;20032;-83
2023/06/03 11:45:24;;;;;;;12.88;9.05;;;589.00;2432.00;;;;;;5053370;28;20025;-83
2023/06/03 11:48:08;;;;;;;12.50;8.23;;;589.10;2432.00;;;;;;5053507;28;20029;-83
2023/06/03 11:50:49;;;;;;;10.98;7.88;;;589.30;2432.00;;;;;;5053446;28;20032;-83
2023/06/03 11:53:28;;;;;;;12.77;8.48;;;589.20;2432.00;;;;;;5055061;28;20101;-84
2023/06/03 11:56:02;;;;;;;11.25;7.10;;;589.50;2432.00;;;;;;5054265;28;20029;-83
2023/06/03 11:58:28;;;;;;;10.15;7.90;;;589.50;2432.00;;;;;;5053459;28;20079;-83
2023/06/03 12:01:23;;;;;;;11.30;8.05;;;589.70;2432.00;;;;;;5054699;28;20453;-84
2023/06/03 12:03:59;;;;;;;10.85;6.43;;;614.80;2432.00;;;;;;5035056;28;20051;-86
2023/06/03 12:06:25;;;;;;;11.02;8.48;;;614.90;2432.00;;;;;;5053923;28;20041;-86
2023/06/03 12:08:51;;;;;;;12.23;7.80;;;;;;;;;;5050496;28;20025;-85
2023/06/03 12:11:24;;;;;;;11.63;7.57;;;;;;;;;;5053365;28;20033;-85
2023/06/03 12:13:50;;;;;;;8.70;6.53;;;640.60;2432.00;;;;;;5053305;28;20025;-86
2023/06/03 12:16:36;;;;;;;9.50;7.38;;;;;;;;;;5053151;28;20429;-86
2023/06/03 12:19:03;;;;;;;8.20;6.78;;;;;;;;;;5053212;28;20025;-85
2023/06/03 12:21:30;;;;;;;7.75;5.80;;;;;;;;;;5052802;28;20055;-87
2023/06/03 12:23:56;;;;;;;8.85;7.55;;;;;;;;;;5052021;28;20025;-83